Time;durP1;ratioP1;P1;durP2;ratioP2;P2;SDS_P1;SDS_P2;PMS_P1;PMS_P2;Temp;Humidity;BMP_temperature;BMP_pressure;BME280_temperature;BME280_humidity;BME280_pressure;Samples;Min_cycle;Max_cycle;Signal;HPM_P1;HPM_P2
2022/05/31 00:01:10;;;;;;;3.78;2.88;;;9.80;99.90;;;;;;5011607;28;20239;-66
2022/05/31 00:03:37;;;;;;;4.05;2.60;;;9.70;99.90;;;;;;5010165;28;20126;-65
2022/05/31 00:06:04;;;;;;;2.88;2.67;;;9.70;99.90;;;;;;5007775;28;20111;-69
2022/05/31 00:08:32;;;;;;;3.90;3.00;;;9.80;99.90;;;;;;5008650;28;20067;-67
2022/05/31 00:11:00;;;;;;;3.08;2.83;;;9.80;99.90;;;;;;5011383;28;20053;-68
2022/05/31 00:13:27;;;;;;;3.72;3.42;;;9.80;99.90;;;;;;5011069;28;21017;-70
2022/05/31 00:15:54;;;;;;;6.70;3.72;;;9.80;99.90;;;;;;5009902;28;20169;-68
2022/05/31 00:18:21;;;;;;;4.93;3.72;;;9.80;99.90;;;;;;5010469;28;20057;-66
2022/05/31 00:20:48;;;;;;;3.67;3.35;;;9.80;99.90;;;;;;5005117;28;20409;-69
2022/05/31 00:23:15;;;;;;;4.80;3.22;;;9.80;99.90;;;;;;5009731;28;20045;-68
2022/05/31 00:25:42;;;;;;;4.57;4.10;;;9.80;99.90;;;;;;5009851;28;20072;-66
2022/05/31 00:28:09;;;;;;;6.60;3.33;;;9.80;99.90;;;;;;5009904;28;20045;-67
2022/05/31 00:30:37;;;;;;;6.32;3.97;;;9.80;99.90;;;;;;4988964;28;20144;-68
2022/05/31 00:33:06;;;;;;;3.15;2.95;;;9.80;99.90;;;;;;5009561;28;20081;-71
2022/05/31 00:35:39;;;;;;;3.47;2.92;;;9.80;99.90;;;;;;5008577;28;20192;-73
2022/05/31 00:38:08;;;;;;;4.53;3.33;;;9.80;99.90;;;;;;5006657;28;20053;-71
2022/05/31 00:40:36;;;;;;;3.97;3.55;;;9.80;99.90;;;;;;4987729;28;20145;-69
2022/05/31 00:43:10;;;;;;;4.53;3.05;;;9.80;99.90;;;;;;5009742;28;20091;-68
2022/05/31 00:45:55;;;;;;;3.63;3.33;;;9.80;99.90;;;;;;5022380;28;20953;-66
2022/05/31 00:48:27;;;;;;;3.85;3.47;;;9.80;99.90;;;;;;5022496;28;20049;-70
2022/05/31 00:51:08;;;;;;;3.55;3.03;;;9.80;99.90;;;;;;4989522;28;20049;-67
2022/05/31 00:53:40;;;;;;;4.25;3.15;;;9.80;99.90;;;;;;5005637;28;20042;-66
2022/05/31 00:56:14;;;;;;;6.03;4.18;;;9.90;99.90;;;;;;5010751;28;20129;-68
2022/05/31 00:58:58;;;;;;;4.95;3.45;;;9.90;99.90;;;;;;5008744;28;20061;-68
2022/05/31 01:01:27;;;;;;;4.18;3.50;;;9.90;99.90;;;;;;5011138;28;20056;-68
2022/05/31 01:03:55;;;;;;;3.88;2.95;;;9.90;99.90;;;;;;5023448;28;20499;-72
2022/05/31 01:06:22;;;;;;;4.43;3.15;;;9.90;99.90;;;;;;5014997;28;20052;-69
2022/05/31 01:08:55;;;;;;;4.28;3.05;;;9.90;99.90;;;;;;4989894;28;20060;-65
2022/05/31 01:11:46;;;;;;;5.65;4.00;;;9.80;99.90;;;;;;4976408;28;20452;-66
2022/05/31 01:14:32;;;;;;;2.80;2.47;;;9.90;99.90;;;;;;5010970;28;21542;-68
2022/05/31 01:17:20;;;;;;;3.28;2.97;;;9.90;99.90;;;;;;5013473;28;20101;-69
2022/05/31 01:20:00;;;;;;;3.50;3.17;;;9.90;99.90;;;;;;5012711;28;20053;-69
2022/05/31 01:22:51;;;;;;;3.97;3.53;;;9.90;99.90;;;;;;4990658;28;20064;-68
2022/05/31 01:25:21;;;;;;;2.83;2.63;;;9.90;99.90;;;;;;4991122;28;20050;-68
2022/05/31 01:28:22;;;;;;;6.85;3.53;;;9.80;99.90;;;;;;5014031;28;20049;-66
2022/05/31 01:31:00;;;;;;;4.22;3.28;;;9.80;99.90;;;;;;5011149;28;20053;-69
2022/05/31 01:33:36;;;;;;;5.75;3.03;;;9.80;99.90;;;;;;5012952;28;20152;-66
2022/05/31 01:36:15;;;;;;;3.72;3.40;;;9.80;99.90;;;;;;5012988;28;20057;-68
2022/05/31 01:38:52;;;;;;;3.63;3.33;;;9.90;99.90;;;;;;5011324;28;20116;-71
2022/05/31 01:41:32;;;;;;;2.92;2.72;;;9.90;99.90;;;;;;5009673;28;20049;-70
2022/05/31 01:44:02;;;;;;;6.68;3.15;;;9.90;99.90;;;;;;5012345;28;20054;-70
2022/05/31 01:46:33;;;;;;;4.97;3.05;;;9.90;99.90;;;;;;5013767;28;20041;-69
2022/05/31 01:49:06;;;;;;;4.57;3.60;;;9.90;99.90;;;;;;5011769;28;20136;-67
2022/05/31 01:51:40;;;;;;;4.43;2.88;;;9.90;99.90;;;;;;4991487;28;20061;-68
2022/05/31 01:54:12;;;;;;;3.83;3.45;;;9.90;99.90;;;;;;5013300;28;20484;-65
2022/05/31 01:56:42;;;;;;;2.88;2.67;;;9.80;99.90;;;;;;4988545;28;20053;-68
2022/05/31 01:59:11;;;;;;;5.47;3.20;;;9.80;99.90;;;;;;5025085;28;20057;-66
2022/05/31 02:01:39;;;;;;;3.58;2.92;;;9.90;99.90;;;;;;4993889;28;20081;-68
2022/05/31 02:04:07;;;;;;;4.60;3.30;;;9.80;99.90;;;;;;5006945;28;20053;-66
2022/05/31 02:06:38;;;;;;;4.68;3.33;;;9.90;99.90;;;;;;5010746;28;20172;-68
2022/05/31 02:09:08;;;;;;;5.75;3.72;;;9.90;99.90;;;;;;4985284;28;21321;-70
2022/05/31 02:11:36;;;;;;;3.58;3.28;;;9.90;99.90;;;;;;5006754;28;20164;-72
2022/05/31 02:14:16;;;;;;;4.20;3.67;;;9.90;99.90;;;;;;4991910;28;20092;-69
2022/05/31 02:16:43;;;;;;;3.90;3.50;;;9.90;99.90;;;;;;5007544;28;20911;-65
2022/05/31 02:19:36;;;;;;;3.92;3.35;;;9.90;99.90;;;;;;5010674;28;20057;-70
2022/05/31 02:22:22;;;;;;;8.20;3.55;;;9.90;99.90;;;;;;5012697;28;20110;-70
2022/05/31 02:24:50;;;;;;;4.07;3.67;;;9.90;99.90;;;;;;4989915;28;20127;-71
2022/05/31 02:27:17;;;;;;;3.83;3.47;;;9.90;99.90;;;;;;5011111;28;20144;-67
2022/05/31 02:29:44;;;;;;;4.00;3.60;;;10.00;99.90;;;;;;4989911;28;20578;-69
2022/05/31 02:32:14;;;;;;;5.35;3.30;;;9.90;99.90;;;;;;5012085;28;20049;-72
2022/05/31 02:34:45;;;;;;;6.65;4.43;;;10.00;99.90;;;;;;5009221;28;20053;-66
2022/05/31 02:37:14;;;;;;;5.88;3.28;;;10.00;99.90;;;;;;5009681;28;20061;-67
2022/05/31 02:39:41;;;;;;;8.38;4.20;;;9.90;99.90;;;;;;4992609;28;20111;-67
2022/05/31 02:42:09;;;;;;;4.20;3.28;;;9.90;99.90;;;;;;5011997;28;20061;-68
2022/05/31 02:44:37;;;;;;;7.15;3.03;;;9.90;99.90;;;;;;5004772;28;20415;-68
2022/05/31 02:47:05;;;;;;;9.05;3.45;;;9.90;99.90;;;;;;4992911;28;20053;-67
2022/05/31 02:49:33;;;;;;;10.27;4.30;;;9.90;99.90;;;;;;5024143;28;20450;-69
2022/05/31 02:52:00;;;;;;;4.50;2.90;;;9.90;99.90;;;;;;4992667;28;20072;-67
2022/05/31 02:54:28;;;;;;;4.03;3.30;;;9.90;99.90;;;;;;5011866;28;20064;-67
2022/05/31 02:57:18;;;;;;;4.53;2.95;;;9.90;99.90;;;;;;5010345;28;20049;-69
2022/05/31 03:00:05;;;;;;;5.18;3.28;;;9.90;99.90;;;;;;5008836;28;20199;-67
2022/05/31 03:02:38;;;;;;;4.13;3.63;;;9.90;99.90;;;;;;5011147;28;20049;-66
2022/05/31 03:05:34;;;;;;;3.75;3.08;;;9.90;99.90;;;;;;5011238;28;20391;-69
2022/05/31 03:08:26;;;;;;;3.65;3.00;;;10.00;99.90;;;;;;4992448;28;20060;-68
2022/05/31 03:11:24;;;;;;;6.03;3.00;;;10.00;99.90;;;;;;4994128;28;20065;-67
2022/05/31 03:13:56;;;;;;;4.32;3.05;;;10.00;99.90;;;;;;5010874;28;20068;-68
2022/05/31 03:16:23;;;;;;;4.20;2.50;;;9.90;99.90;;;;;;5006956;28;20053;-71
2022/05/31 03:19:02;;;;;;;3.72;3.45;;;10.00;99.90;;;;;;5009079;28;20077;-67
2022/05/31 03:21:37;;;;;;;3.20;2.58;;;10.00;99.90;;;;;;5010104;28;20046;-68
2022/05/31 03:24:12;;;;;;;5.65;3.17;;;10.00;99.90;;;;;;5009942;28;20179;-70
2022/05/31 03:26:40;;;;;;;3.92;3.05;;;10.00;99.90;;;;;;5008540;28;20537;-67
2022/05/31 03:29:09;;;;;;;2.60;2.38;;;10.00;99.90;;;;;;4989486;28;20057;-66
2022/05/31 03:31:38;;;;;;;7.75;3.97;;;10.00;99.90;;;;;;5008266;28;20827;-69
2022/05/31 03:34:05;;;;;;;6.68;3.38;;;10.00;99.90;;;;;;5010797;28;20045;-67
2022/05/31 03:36:32;;;;;;;3.95;3.42;;;10.00;99.90;;;;;;5009005;28;20160;-70
2022/05/31 03:39:06;;;;;;;5.65;3.05;;;10.00;99.90;;;;;;4990477;28;20546;-67
2022/05/31 03:41:34;;;;;;;3.20;2.90;;;9.90;99.90;;;;;;4992347;28;21421;-70
2022/05/31 03:44:03;;;;;;;5.18;3.35;;;9.90;99.90;;;;;;4996132;28;20048;-66
2022/05/31 03:47:04;;;;;;;4.80;3.08;;;9.90;99.90;;;;;;4963823;28;20046;-67
2022/05/31 03:49:54;;;;;;;4.00;3.03;;;9.90;99.90;;;;;;5006960;28;20053;-68
2022/05/31 03:52:21;;;;;;;4.43;3.17;;;9.90;99.90;;;;;;4990405;28;20057;-66
2022/05/31 03:54:48;;;;;;;3.10;2.80;;;9.90;99.90;;;;;;5002475;28;20164;-69
2022/05/31 03:57:33;;;;;;;4.80;3.78;;;9.90;99.90;;;;;;5008629;28;20692;-69
2022/05/31 04:00:15;;;;;;;3.47;3.10;;;9.90;99.90;;;;;;4990611;28;20057;-66
2022/05/31 04:02:45;;;;;;;7.35;4.35;;;9.90;99.90;;;;;;5008678;28;20052;-68
2022/05/31 04:05:14;;;;;;;4.05;3.75;;;9.90;99.90;;;;;;4987755;28;20049;-67
2022/05/31 04:07:42;;;;;;;6.78;3.63;;;9.90;99.90;;;;;;4991328;28;20061;-67
2022/05/31 04:10:10;;;;;;;8.13;3.42;;;9.90;99.90;;;;;;4990701;28;20053;-67
2022/05/31 04:12:38;;;;;;;5.55;4.43;;;9.90;99.90;;;;;;4990111;28;21632;-67
2022/05/31 04:15:28;;;;;;;;;;;9.90;99.90;;;;;;5010473;28;20053;-70
2022/05/31 04:17:55;;;;;;;5.70;4.05;;;9.90;99.90;;;;;;4989983;28;19936;-68
2022/05/31 04:20:22;;;;;;;4.30;3.80;;;9.90;99.90;;;;;;5000533;28;20077;-71
2022/05/31 04:22:49;;;;;;;5.18;4.70;;;9.90;99.90;;;;;;5009246;28;20053;-67
2022/05/31 04:25:48;;;;;;;6.90;4.65;;;9.90;99.90;;;;;;4994571;28;20054;-69
2022/05/31 04:28:44;;;;;;;7.75;5.03;;;9.90;99.90;;;;;;4951545;28;20062;-66
2022/05/31 04:31:30;;;;;;;4.85;4.22;;;9.90;99.90;;;;;;5009116;28;20102;-72
2022/05/31 04:34:22;;;;;;;6.03;3.72;;;10.00;99.90;;;;;;4989008;28;20791;-67
2022/05/31 04:36:49;;;;;;;4.65;4.18;;;10.00;99.90;;;;;;4987788;28;20057;-68
2022/05/31 04:39:20;;;;;;;6.28;4.53;;;10.00;99.90;;;;;;5024600;28;20049;-69
2022/05/31 04:41:53;;;;;;;5.03;4.53;;;10.00;99.90;;;;;;4990265;28;20732;-69
2022/05/31 04:44:22;;;;;;;7.22;5.28;;;10.00;99.90;;;;;;4990714;28;20088;-66
2022/05/31 04:46:49;;;;;;;6.63;5.65;;;10.00;99.90;;;;;;5015325;28;20057;-68
2022/05/31 04:49:33;;;;;;;5.43;5.00;;;9.90;99.90;;;;;;5006542;28;20051;-65
2022/05/31 04:52:00;;;;;;;6.05;4.88;;;9.90;99.90;;;;;;5011187;28;20057;-65
2022/05/31 04:54:34;;;;;;;5.72;4.43;;;9.90;99.90;;;;;;5025752;28;20049;-69
2022/05/31 04:57:17;;;;;;;6.30;5.63;;;9.90;99.90;;;;;;5015753;28;20057;-69
2022/05/31 04:59:45;;;;;;;17.73;6.93;;;10.00;99.90;;;;;;4991739;28;20064;-70
2022/05/31 05:02:13;;;;;;;7.03;5.63;;;9.90;99.90;;;;;;5011511;28;20057;-74
2022/05/31 05:04:45;;;;;;;10.20;5.25;;;9.90;99.90;;;;;;4995625;28;20176;-70
2022/05/31 05:07:27;;;;;;;7.38;6.55;;;9.90;99.90;;;;;;4990622;28;21396;-66
2022/05/31 05:09:54;;;;;;;7.57;4.88;;;10.00;99.90;;;;;;4994401;28;20140;-67
2022/05/31 05:12:21;;;;;;;6.57;4.97;;;10.00;99.90;;;;;;5014365;28;20132;-68
2022/05/31 05:14:55;;;;;;;6.95;5.65;;;10.10;99.90;;;;;;5011916;28;20064;-68
2022/05/31 05:17:25;;;;;;;7.20;5.10;;;10.10;99.90;;;;;;5008318;28;20139;-70
2022/05/31 05:19:51;;;;;;;7.60;5.03;;;10.10;99.90;;;;;;4993170;28;20525;-69
2022/05/31 05:22:18;;;;;;;7.80;5.50;;;10.10;99.90;;;;;;4994950;28;20145;-69
2022/05/31 05:24:45;;;;;;;8.35;4.57;;;10.00;99.90;;;;;;4990053;28;20463;-68
2022/05/31 05:27:31;;;;;;;8.57;5.95;;;10.10;99.90;;;;;;5012066;28;20064;-67
2022/05/31 05:30:39;;;;;;;8.77;4.40;;;10.10;99.90;;;;;;5012408;28;20156;-70
2022/05/31 05:33:32;;;;;;;6.28;4.15;;;10.10;99.90;;;;;;4970635;28;20046;-69
2022/05/31 05:36:14;;;;;;;7.25;5.47;;;10.10;99.90;;;;;;5011492;28;20049;-70
2022/05/31 05:38:42;;;;;;;10.60;4.97;;;10.00;99.90;;;;;;4989710;28;20050;-70
2022/05/31 05:41:29;;;;;;;5.63;4.13;;;10.00;99.90;;;;;;5011229;28;20084;-67
2022/05/31 05:44:26;;;;;;;4.43;4.03;;;10.00;99.90;;;;;;4937819;28;20154;-68
2022/05/31 05:46:57;;;;;;;7.50;4.57;;;9.90;99.90;;;;;;4992316;28;20045;-67
2022/05/31 05:49:24;;;;;;;9.15;4.90;;;10.00;99.90;;;;;;5023350;28;20077;-70
2022/05/31 05:51:56;;;;;;;6.13;4.70;;;10.00;99.90;;;;;;5010035;28;20159;-68
2022/05/31 05:54:41;;;;;;;5.13;4.63;;;10.00;99.90;;;;;;5010372;28;20091;-67
2022/05/31 05:57:27;;;;;;;7.43;5.53;;;10.00;99.90;;;;;;5011900;28;20092;-67
2022/05/31 06:00:13;;;;;;;6.32;5.13;;;10.00;99.90;;;;;;5012991;28;20064;-69
2022/05/31 06:03:06;;;;;;;5.35;4.75;;;10.00;99.90;;;;;;5012288;28;20575;-69
2022/05/31 06:06:07;;;;;;;6.70;4.43;;;10.00;99.90;;;;;;4999455;28;20140;-69
2022/05/31 06:08:41;;;;;;;6.95;5.10;;;10.00;99.90;;;;;;5013336;28;20049;-70
2022/05/31 06:11:15;;;;;;;9.40;5.20;;;10.00;99.90;;;;;;5008572;28;20170;-68
2022/05/31 06:14:00;;;;;;;8.95;5.43;;;10.10;99.90;;;;;;4995007;28;20080;-66
2022/05/31 06:16:33;;;;;;;9.55;5.38;;;10.10;99.90;;;;;;5024274;28;20494;-68
2022/05/31 06:19:16;;;;;;;6.90;5.20;;;10.10;99.90;;;;;;4995462;28;20045;-69
2022/05/31 06:21:45;;;;;;;8.35;5.00;;;10.10;99.90;;;;;;5010725;28;20141;-71
2022/05/31 06:24:23;;;;;;;6.35;5.28;;;10.10;99.90;;;;;;5023253;28;20053;-67
2022/05/31 06:26:52;;;;;;;7.00;5.05;;;10.20;99.90;;;;;;4993503;28;20053;-68
2022/05/31 06:29:19;;;;;;;7.78;5.18;;;10.10;99.90;;;;;;4994303;28;20049;-69
2022/05/31 06:31:46;;;;;;;6.38;5.78;;;10.20;99.90;;;;;;4991052;28;20081;-67
2022/05/31 06:34:25;;;;;;;5.50;4.10;;;10.30;99.90;;;;;;5007709;28;20068;-69
2022/05/31 06:37:16;;;;;;;6.60;5.20;;;10.20;99.90;;;;;;4999520;28;20046;-68
2022/05/31 06:39:45;;;;;;;4.55;4.13;;;10.20;99.90;;;;;;4987971;28;20103;-66
2022/05/31 06:42:41;;;;;;;6.82;5.25;;;10.20;99.90;;;;;;4898839;28;20044;-70
2022/05/31 06:45:40;;;;;;;5.07;4.57;;;10.20;99.90;;;;;;5010477;28;20124;-68
2022/05/31 06:48:26;;;;;;;7.32;4.05;;;10.30;99.90;;;;;;4995593;28;20064;-66
2022/05/31 06:51:13;;;;;;;4.45;3.80;;;10.20;99.90;;;;;;5010827;28;20522;-68
2022/05/31 06:57:14;;;;;;;7.47;5.95;;;10.30;99.90;;;;;;5009724;28;20053;-69
2022/05/31 06:59:48;;;;;;;6.35;4.25;;;10.30;99.90;;;;;;4972399;28;20060;-69
2022/05/31 07:02:14;;;;;;;5.28;4.40;;;10.30;99.90;;;;;;5006073;28;20049;-68
2022/05/31 07:04:43;;;;;;;5.97;3.85;;;10.30;99.90;;;;;;5022324;28;20053;-70
2022/05/31 07:07:10;;;;;;;7.80;4.80;;;10.40;99.90;;;;;;4992459;28;20049;-66
2022/05/31 07:10:07;;;;;;;10.85;4.20;;;10.30;99.90;;;;;;5010975;28;20092;-69
2022/05/31 07:12:57;;;;;;;5.57;4.20;;;10.30;99.90;;;;;;4991141;28;20687;-68
2022/05/31 07:15:43;;;;;;;6.40;5.25;;;10.40;99.90;;;;;;5007250;28;20075;-69
2022/05/31 07:19:05;;;;;;;5.40;3.40;;;10.30;99.90;;;;;;4953007;28;20425;-69
2022/05/31 07:21:40;;;;;;;4.13;3.72;;;10.30;99.90;;;;;;4979797;28;20822;-66
2022/05/31 07:24:07;;;;;;;6.50;4.63;;;10.30;99.90;;;;;;5011619;28;20049;-69
2022/05/31 07:26:38;;;;;;;6.15;4.65;;;10.30;99.90;;;;;;4992538;28;20677;-68
2022/05/31 07:29:09;;;;;;;4.28;3.88;;;10.20;99.90;;;;;;4990712;28;20552;-66
2022/05/31 07:31:37;;;;;;;6.55;4.43;;;10.30;99.90;;;;;;4990461;28;20045;-66
2022/05/31 07:34:25;;;;;;;5.43;4.93;;;10.30;99.90;;;;;;4996812;28;20061;-67
2022/05/31 07:36:53;;;;;;;7.88;4.60;;;10.30;99.90;;;;;;4997347;28;20045;-68
2022/05/31 07:39:22;;;;;;;7.88;5.10;;;10.20;99.90;;;;;;4995977;28;20073;-66
2022/05/31 07:41:54;;;;;;;6.07;5.47;;;10.20;99.90;;;;;;5022233;28;20152;-67
2022/05/31 07:44:21;;;;;;;5.35;4.50;;;10.10;99.90;;;;;;4990822;28;20095;-68
2022/05/31 07:46:49;;;;;;;5.53;5.03;;;10.10;99.90;;;;;;5002723;28;21175;-68
2022/05/31 07:49:16;;;;;;;8.75;5.22;;;10.20;99.90;;;;;;5023001;28;20053;-66
2022/05/31 07:51:59;;;;;;;5.70;5.05;;;10.10;99.90;;;;;;4990468;28;20776;-67
2022/05/31 07:54:45;;;;;;;7.60;5.93;;;10.10;99.90;;;;;;5009810;28;20236;-70
2022/05/31 08:00:55;;;;;;;7.13;4.85;;;10.10;99.90;;;;;;4945847;28;20058;-69
2022/05/31 08:03:22;;;;;;;8.30;5.82;;;10.10;99.90;;;;;;4976493;28;20048;-67
2022/05/31 08:05:49;;;;;;;6.72;5.43;;;10.10;99.90;;;;;;5009257;28;20076;-71
2022/05/31 08:08:22;;;;;;;9.30;6.90;;;10.00;99.90;;;;;;5010171;28;20053;-70
2022/05/31 08:11:14;;;;;;;9.23;5.00;;;10.10;99.90;;;;;;5012066;28;20054;-66
2022/05/31 08:13:42;;;;;;;6.15;5.15;;;10.10;99.90;;;;;;5013173;28;20072;-69
2022/05/31 08:16:11;;;;;;;5.47;4.97;;;10.10;99.90;;;;;;5014636;28;20102;-71
2022/05/31 08:18:39;;;;;;;7.50;4.90;;;10.10;99.90;;;;;;5011908;28;20156;-75
2022/05/31 08:21:08;;;;;;;7.15;5.03;;;10.10;99.90;;;;;;4996538;28;20049;-65
2022/05/31 08:23:36;;;;;;;5.03;4.53;;;10.20;99.90;;;;;;5013182;28;20057;-69
2022/05/31 08:26:04;;;;;;;6.93;4.97;;;10.10;99.90;;;;;;5015200;28;20143;-69
2022/05/31 08:28:32;;;;;;;16.42;7.60;;;10.10;99.90;;;;;;5015645;28;20065;-68
2022/05/31 08:31:04;;;;;;;9.52;5.80;;;10.10;99.90;;;;;;5015426;28;20145;-67
2022/05/31 08:33:33;;;;;;;8.73;5.43;;;10.10;99.90;;;;;;5012149;28;20077;-68
2022/05/31 08:36:00;;;;;;;6.35;4.35;;;10.10;99.90;;;;;;5012238;28;20049;-67
2022/05/31 08:38:30;;;;;;;9.32;5.85;;;10.20;99.90;;;;;;5013705;28;20159;-72
2022/05/31 08:40:57;;;;;;;8.82;5.50;;;10.10;99.90;;;;;;5014579;28;20112;-66
2022/05/31 08:43:52;;;;;;;10.63;5.43;;;10.10;99.90;;;;;;5012938;28;20061;-67
2022/05/31 08:46:43;;;;;;;6.30;4.75;;;10.00;99.90;;;;;;5012851;28;20057;-69
2022/05/31 08:51:52;;;;;;;6.22;4.78;;;10.10;99.90;;;;;;5012509;28;20462;-66
2022/05/31 08:52:25;;;;;;;10.38;4.90;;;10.10;99.90;;;;;;5009697;28;20093;-69
2022/05/31 08:57:51;;;;;;;8.82;5.65;;;10.10;99.90;;;;;;4990708;28;21027;-65
2022/05/31 09:00:31;;;;;;;18.00;5.45;;;10.10;99.90;;;;;;5014727;28;20140;-68
2022/05/31 09:02:58;;;;;;;;;;;10.10;99.90;;;;;;5011502;28;20064;-65
2022/05/31 09:05:32;;;;;;;5.00;4.43;;;10.00;99.90;;;;;;5011082;28;19935;-66
2022/05/31 09:08:21;;;;;;;4.43;4.03;;;10.00;99.90;;;;;;5009888;28;21018;-69
2022/05/31 09:11:12;;;;;;;5.93;5.32;;;10.00;99.90;;;;;;5012619;28;20144;-67
2022/05/31 09:13:56;;;;;;;4.95;4.32;;;10.10;99.90;;;;;;5012376;28;20161;-66
2022/05/31 09:17:08;;;;;;;7.82;5.82;;;10.00;99.90;;;;;;5013582;28;20061;-68
2022/05/31 09:20:02;;;;;;;7.35;4.88;;;10.10;99.90;;;;;;4953255;28;20053;-67
2022/05/31 09:22:29;;;;;;;6.97;6.35;;;10.20;99.90;;;;;;5011809;28;20057;-72
2022/05/31 09:24:57;;;;;;;5.70;5.07;;;10.20;99.90;;;;;;5010622;28;20050;-69
2022/05/31 09:27:40;;;;;;;5.80;5.15;;;10.20;99.90;;;;;;5012738;28;20049;-68
2022/05/31 09:30:14;;;;;;;5.15;4.65;;;10.10;99.90;;;;;;5013049;28;20207;-69
2022/05/31 09:32:43;;;;;;;6.43;5.03;;;10.20;99.90;;;;;;5013488;28;20049;-69
2022/05/31 09:35:48;;;;;;;7.63;6.10;;;10.30;99.90;;;;;;5011932;28;21160;-67
2022/05/31 09:38:24;;;;;;;9.13;5.30;;;10.50;99.90;;;;;;5012622;28;20440;-69
2022/05/31 09:41:05;;;;;;;10.05;5.22;;;10.60;99.90;;;;;;5012663;28;20049;-69
2022/05/31 09:43:56;;;;;;;5.93;5.35;;;10.60;99.90;;;;;;5010398;28;20054;-70
2022/05/31 09:46:59;;;;;;;7.70;5.32;;;10.60;99.90;;;;;;5012966;28;20065;-71
2022/05/31 09:49:43;;;;;;;5.90;4.50;;;10.60;99.90;;;;;;5003241;28;20045;-70
2022/05/31 09:52:15;;;;;;;10.93;6.43;;;10.50;99.90;;;;;;5011645;28;20049;-69
2022/05/31 09:58:23;;;;;;;5.18;4.60;;;10.60;99.90;;;;;;5006845;28;20079;-68
2022/05/31 10:01:28;;;;;;;4.63;4.22;;;10.50;99.90;;;;;;5003906;28;20053;-69
2022/05/31 10:04:27;;;;;;;4.72;4.20;;;10.50;99.90;;;;;;4987673;28;20038;-68
2022/05/31 10:07:07;;;;;;;6.65;4.53;;;10.40;99.90;;;;;;5007766;28;20219;-66
2022/05/31 10:09:48;;;;;;;4.90;4.40;;;10.40;99.90;;;;;;5004421;28;20057;-71
2022/05/31 10:12:31;;;;;;;5.93;4.22;;;10.40;99.90;;;;;;4987513;28;20160;-70
2022/05/31 10:15:03;;;;;;;7.00;4.15;;;10.40;99.90;;;;;;5007665;28;20049;-69
2022/05/31 10:17:42;;;;;;;4.35;3.95;;;10.40;99.90;;;;;;5006060;28;20057;-70
2022/05/31 10:20:18;;;;;;;7.20;4.00;;;10.40;99.90;;;;;;4990373;28;20053;-68
2022/05/31 10:23:02;;;;;;;4.70;3.45;;;10.30;99.90;;;;;;5009384;28;20053;-67
2022/05/31 10:25:52;;;;;;;3.97;3.55;;;10.20;99.90;;;;;;5009837;28;20068;-65
2022/05/31 10:28:56;;;;;;;6.05;4.55;;;10.20;99.90;;;;;;5007799;28;20051;-70
2022/05/31 10:31:48;;;;;;;4.47;3.83;;;10.30;99.90;;;;;;4987659;28;20491;-70
2022/05/31 10:34:34;;;;;;;6.45;4.07;;;10.30;99.90;;;;;;5011261;28;20053;-71
2022/05/31 10:37:03;;;;;;;4.68;4.18;;;10.30;99.90;;;;;;5006837;28;20049;-66
2022/05/31 10:39:35;;;;;;;7.80;4.77;;;10.30;99.90;;;;;;5007295;28;20045;-71
2022/05/31 10:42:12;;;;;;;5.22;4.72;;;10.30;99.90;;;;;;5010847;28;20089;-71
2022/05/31 10:44:52;;;;;;;5.78;5.18;;;10.30;99.90;;;;;;5008752;28;20054;-69
2022/05/31 10:47:21;;;;;;;7.07;5.65;;;10.40;99.90;;;;;;5011061;28;20162;-70
2022/05/31 10:49:49;;;;;;;6.20;5.60;;;10.30;99.90;;;;;;5007506;28;20156;-67
2022/05/31 10:52:36;;;;;;;6.07;5.05;;;10.30;99.90;;;;;;5010417;28;20524;-67
2022/05/31 10:55:31;;;;;;;7.47;5.43;;;10.30;99.90;;;;;;5006963;28;20057;-71
2022/05/31 10:58:40;;;;;;;6.40;5.60;;;10.40;99.90;;;;;;5001945;28;20451;-72
2022/05/31 11:01:29;;;;;;;11.48;6.25;;;10.40;99.90;;;;;;5007040;28;20164;-71
2022/05/31 11:04:16;;;;;;;8.02;6.05;;;10.50;99.90;;;;;;5003752;28;20058;-68
2022/05/31 11:07:13;;;;;;;8.73;6.15;;;10.50;99.90;;;;;;5004171;28;20071;-67
2022/05/31 11:13:02;;;;;;;7.82;6.32;;;10.50;99.90;;;;;;5007436;28;20041;-72
2022/05/31 11:15:40;;;;;;;9.98;7.03;;;10.50;99.90;;;;;;5002561;28;20053;-67
2022/05/31 11:18:28;;;;;;;7.35;6.68;;;10.50;99.90;;;;;;5005555;28;20064;-66
2022/05/31 11:21:18;;;;;;;7.38;6.70;;;10.50;99.90;;;;;;5005265;28;20587;-69
2022/05/31 11:23:57;;;;;;;8.13;6.13;;;10.50;99.90;;;;;;5002252;28;23431;-72
2022/05/31 11:26:33;;;;;;;13.35;7.43;;;10.50;99.90;;;;;;5004657;28;20049;-69
2022/05/31 11:29:51;;;;;;;7.75;6.85;;;10.60;99.90;;;;;;5004173;28;20059;-69
2022/05/31 11:32:50;;;;;;;9.45;6.53;;;10.60;99.90;;;;;;4998929;28;20210;-67
2022/05/31 11:35:39;;;;;;;11.65;7.97;;;10.60;99.90;;;;;;5005815;28;20928;-68
2022/05/31 11:38:34;;;;;;;9.30;7.60;;;10.70;99.90;;;;;;5010763;28;20152;-68
2022/05/31 11:41:10;;;;;;;9.07;7.30;;;10.70;99.90;;;;;;5008307;28;20045;-67
2022/05/31 11:44:14;;;;;;;8.38;7.53;;;10.80;99.90;;;;;;5006568;28;20087;-67
2022/05/31 11:46:46;;;;;;;7.22;6.53;;;10.90;99.90;;;;;;5005876;28;20180;-66
2022/05/31 11:49:32;;;;;;;9.95;8.75;;;11.00;99.90;;;;;;5010523;28;20045;-65
2022/05/31 11:52:26;;;;;;;10.32;8.45;;;11.00;99.90;;;;;;5007516;28;20069;-70
2022/05/31 11:55:28;;;;;;;9.63;6.40;;;11.00;99.90;;;;;;5010163;28;20132;-69
2022/05/31 11:58:08;;;;;;;8.80;6.53;;;11.10;99.90;;;;;;4990701;28;20049;-67
2022/05/31 12:01:02;;;;;;;10.18;5.68;;;11.10;99.90;;;;;;5008231;28;20183;-69
2022/05/31 12:03:37;;;;;;;9.80;6.93;;;11.00;99.90;;;;;;5002638;28;20139;-70
2022/05/31 12:06:13;;;;;;;10.95;6.90;;;11.00;99.90;;;;;;5006016;28;20123;-67
2022/05/31 12:08:43;;;;;;;8.30;6.53;;;11.00;99.90;;;;;;5006551;28;20061;-70
2022/05/31 12:11:16;;;;;;;;;;;11.10;99.90;;;;;;5007719;28;20156;-67
2022/05/31 12:13:45;;;;;;;7.38;6.70;;;11.10;99.90;;;;;;5003107;28;19930;-66
2022/05/31 12:16:13;;;;;;;7.07;6.30;;;11.10;99.90;;;;;;5006534;28;20045;-67
2022/05/31 12:19:02;;;;;;;7.88;7.13;;;11.20;99.90;;;;;;5004303;28;20050;-66
2022/05/31 12:21:42;;;;;;;6.95;6.35;;;11.20;99.90;;;;;;5000500;28;20431;-71
2022/05/31 12:24:34;;;;;;;8.18;6.00;;;11.20;99.90;;;;;;5007151;28;20196;-68
2022/05/31 12:27:10;;;;;;;7.38;5.78;;;11.20;99.90;;;;;;4990321;28;20065;-68
2022/05/31 12:30:15;;;;;;;7.18;6.18;;;11.20;99.90;;;;;;5005091;28;20220;-70
2022/05/31 12:32:46;;;;;;;13.10;6.78;;;11.30;99.90;;;;;;5006745;28;20057;-71
2022/05/31 12:35:48;;;;;;;7.68;6.10;;;11.30;99.90;;;;;;5003607;28;20057;-72
2022/05/31 12:38:15;;;;;;;9.05;6.28;;;11.30;99.90;;;;;;5005527;28;20065;-67
2022/05/31 12:40:53;;;;;;;7.95;5.28;;;11.30;99.90;;;;;;5005812;28;20558;-69
2022/05/31 12:43:58;;;;;;;5.68;5.18;;;11.40;99.90;;;;;;5007807;28;20100;-71
2022/05/31 12:46:38;;;;;;;12.43;5.10;;;11.40;99.90;;;;;;4922504;28;21461;-69
2022/05/31 12:49:21;;;;;;;7.63;5.18;;;11.40;99.90;;;;;;5002115;28;20069;-68
2022/05/31 12:55:25;;;;;;;6.68;5.97;;;11.40;99.90;;;;;;4944494;28;20053;-69
2022/05/31 12:58:29;;;;;;;5.97;5.03;;;11.50;99.90;;;;;;5008380;28;20077;-67
2022/05/31 13:00:58;;;;;;;6.03;4.78;;;11.50;99.90;;;;;;5013413;28;20103;-69
2022/05/31 13:03:34;;;;;;;7.70;5.95;;;11.50;99.90;;;;;;5009605;28;20049;-67
2022/05/31 13:06:09;;;;;;;8.02;6.40;;;11.50;99.90;;;;;;5009154;28;20115;-69
2022/05/31 13:09:01;;;;;;;7.10;6.43;;;11.60;99.90;;;;;;5009973;28;20088;-72
2022/05/31 13:19:53;;;;;;;5.32;3.95;;;11.60;99.90;;;;;;5019862;28;20073;-69
2022/05/31 13:22:20;;;;;;;4.45;4.05;;;11.60;99.90;;;;;;5006292;28;20050;-68
2022/05/31 13:24:54;;;;;;;5.30;4.50;;;11.70;99.90;;;;;;5006413;28;20064;-67
2022/05/31 13:27:25;;;;;;;6.43;4.25;;;11.70;99.90;;;;;;5009944;28;20085;-68
2022/05/31 13:30:14;;;;;;;5.22;4.72;;;11.70;99.90;;;;;;5011293;28;20472;-68
2022/05/31 13:32:41;;;;;;;5.05;4.55;;;11.80;99.90;;;;;;5009538;28;20091;-69
2022/05/31 13:35:12;;;;;;;4.72;4.30;;;11.80;99.90;;;;;;5008484;28;20075;-65
2022/05/31 13:38:06;;;;;;;4.35;3.97;;;11.80;99.90;;;;;;5006336;28;20928;-68
2022/05/31 13:40:38;;;;;;;4.13;3.22;;;11.80;99.90;;;;;;4990608;28;20136;-66
2022/05/31 13:43:23;;;;;;;3.53;3.22;;;11.90;99.90;;;;;;5007619;28;20064;-67
2022/05/31 13:45:52;;;;;;;5.88;4.15;;;11.90;99.90;;;;;;5008440;28;22222;-68
2022/05/31 13:48:30;;;;;;;4.75;4.30;;;12.00;99.90;;;;;;5008430;28;20299;-66
2022/05/31 13:50:58;;;;;;;4.03;3.63;;;12.00;99.90;;;;;;5009018;28;20053;-70
2022/05/31 13:53:33;;;;;;;4.28;3.88;;;12.00;99.90;;;;;;5007280;28;20572;-69
2022/05/31 13:56:00;;;;;;;6.68;3.50;;;12.00;99.90;;;;;;5008541;28;20126;-69
2022/05/31 13:58:36;;;;;;;5.72;3.58;;;12.00;99.90;;;;;;5007276;28;20056;-68
2022/05/31 14:01:17;;;;;;;5.60;4.18;;;12.20;99.90;;;;;;5010982;28;20774;-69
2022/05/31 14:03:44;;;;;;;4.68;3.67;;;12.30;99.90;;;;;;5007134;28;20073;-69
2022/05/31 14:06:19;;;;;;;5.15;3.85;;;12.30;99.90;;;;;;5008554;28;20053;-68
2022/05/31 14:08:46;;;;;;;6.22;4.15;;;12.50;99.90;;;;;;5008264;28;20641;-67
2022/05/31 14:11:26;;;;;;;3.63;3.00;;;12.60;99.90;;;;;;5007336;28;20067;-66
2022/05/31 14:13:57;;;;;;;3.78;3.35;;;12.60;99.90;;;;;;5004211;28;20049;-68